Time;durP1;ratioP1;P1;durP2;ratioP2;P2;SDS_P1;SDS_P2;PMS_P1;PMS_P2;Temp;Humidity;BMP_temperature;BMP_pressure;BME280_temperature;BME280_humidity;BME280_pressure;Samples;Min_cycle;Max_cycle;Signal;HPM_P1;HPM_P2
2021/08/14 00:00:37;;;;;;;18.13;5.13;;;;;;;16.35;87.25;102279.00;4935786;29;20036;-81
2021/08/14 00:03:03;;;;;;;29.80;5.57;;;;;;;16.33;87.08;102275.41;4953103;28;20035;-83
2021/08/14 00:05:29;;;;;;;19.10;4.90;;;;;;;16.31;87.66;102263.88;4935450;29;20035;-81
2021/08/14 00:07:57;;;;;;;31.60;6.65;;;;;;;16.31;87.85;102261.22;4945131;28;20039;-79
2021/08/14 00:10:22;;;;;;;20.08;5.53;;;;;;;16.29;87.76;102263.88;4947934;28;20054;-79
2021/08/14 00:12:47;;;;;;;25.88;5.40;;;;;;;16.28;87.94;102261.19;4941835;28;20071;-79
2021/08/14 00:15:13;;;;;;;27.35;6.20;;;;;;;16.28;87.94;102271.81;4937877;28;20041;-82
2021/08/14 00:17:58;;;;;;;23.80;5.20;;;;;;;16.25;87.87;102271.75;4938787;28;20039;-85
2021/08/14 00:20:24;;;;;;;21.13;5.50;;;;;;;16.24;88.17;102277.94;4952829;28;20043;-84
2021/08/14 00:22:49;;;;;;;20.73;5.35;;;;;;;16.21;88.22;102280.53;4956710;28;20031;-83
2021/08/14 00:25:15;;;;;;;31.85;5.60;;;;;;;16.21;88.24;102269.91;4956528;28;20131;-80
2021/08/14 00:27:40;;;;;;;29.50;6.15;;;;;;;16.18;88.17;102276.97;4943005;28;20024;-78
2021/08/14 00:30:06;;;;;;;30.17;6.35;;;;;;;16.15;88.55;102276.00;4944457;29;20531;-83
2021/08/14 00:32:32;;;;;;;16.63;5.68;;;;;;;16.12;88.88;102266.22;4945048;28;20082;-83
2021/08/14 00:34:57;;;;;;;24.75;5.65;;;;;;;16.12;88.88;102263.56;4942324;28;20025;-78
2021/08/14 00:37:23;;;;;;;22.10;5.65;;;;;;;16.12;89.05;102260.03;4948631;28;20410;-80
2021/08/14 00:39:50;;;;;;;32.25;6.15;;;;;;;16.11;89.18;102256.47;4950287;28;20023;-84
2021/08/14 00:42:16;;;;;;;31.63;6.20;;;;;;;16.11;89.38;102251.16;4949376;28;20035;-82
2021/08/14 00:44:41;;;;;;;20.05;5.70;;;;;;;16.12;89.12;102252.97;4944741;28;20035;-79
2021/08/14 00:47:07;;;;;;;28.48;6.20;;;;;;;16.14;89.01;102256.53;4951235;28;20024;-80
2021/08/14 00:49:32;;;;;;;23.95;4.97;;;;;;;16.14;89.10;102256.53;4943467;29;20074;-81
2021/08/14 00:51:58;;;;;;;28.23;6.35;;;;;;;16.16;89.28;102262.75;4957819;28;20387;-84
2021/08/14 00:54:24;;;;;;;26.27;5.82;;;;;;;16.15;89.33;102260.97;4955531;28;20063;-81
2021/08/14 00:56:50;;;;;;;30.02;6.03;;;;;;;16.14;89.75;102256.53;4944611;28;20023;-81
2021/08/14 00:59:15;;;;;;;26.88;6.22;;;;;;;16.13;89.67;102262.72;4942676;28;20043;-82
2021/08/14 01:01:41;;;;;;;24.02;5.97;;;;;;;16.12;89.93;102260.03;4954315;28;20109;-83
2021/08/14 01:04:09;;;;;;;23.25;5.57;;;;;;;16.14;89.96;102259.19;4942635;29;20055;-84
2021/08/14 01:06:34;;;;;;;21.77;5.70;;;;;;;16.13;89.88;102252.09;4955478;29;20046;-83
2021/08/14 01:09:00;;;;;;;22.67;6.00;;;;;;;16.15;90.20;102249.47;4957523;28;20439;-81
2021/08/14 01:11:46;;;;;;;20.92;5.50;;;;;;;16.16;89.75;102246.81;4957176;28;20051;-81
2021/08/14 01:14:32;;;;;;;28.35;5.72;;;;;;;16.19;89.94;102241.56;4947665;29;20464;-82
2021/08/14 01:16:59;;;;;;;28.08;5.97;;;;;;;16.23;90.00;102244.28;4956025;29;20043;-82
2021/08/14 01:19:45;;;;;;;22.00;5.88;;;;;;;16.22;90.20;102246.03;4955715;29;20035;-86
2021/08/14 01:22:34;;;;;;;26.40;5.38;;;;;;;16.22;90.31;102247.78;4941868;29;20086;-81
2021/08/14 01:25:00;;;;;;;22.08;6.63;;;;;;;16.21;90.30;102243.34;4942697;28;20021;-78
2021/08/14 01:27:25;;;;;;;27.10;4.57;;;;;;;16.19;90.57;102236.25;4943810;28;20118;-84
2021/08/14 01:29:51;;;;;;;31.58;5.75;;;;;;;16.23;90.33;102236.31;4951689;28;20083;-79
2021/08/14 01:32:36;;;;;;;26.15;5.13;;;;;;;16.26;90.50;102231.03;4955551;28;20043;-83
2021/08/14 01:35:03;;;;;;;21.95;5.82;;;;;;;16.22;90.54;102224.78;4939667;28;20039;-82
2021/08/14 01:37:32;;;;;;;27.17;5.03;;;;;;;16.21;90.71;102232.72;4946336;29;20066;-85
2021/08/14 01:39:58;;;;;;;26.83;5.95;;;;;;;16.23;91.02;102220.38;4946897;29;20034;-82
2021/08/14 01:42:24;;;;;;;22.23;5.65;;;;;;;16.22;91.02;102224.78;4940995;29;20068;-78
2021/08/14 01:45:09;;;;;;;30.98;6.32;;;;;;;16.25;90.80;102219.53;4940608;28;20130;-83
2021/08/14 01:47:35;;;;;;;35.55;6.75;;;;;;;16.28;90.74;102224.00;4955245;28;20041;-83
2021/08/14 01:50:00;;;;;;;27.77;5.85;;;;;;;16.29;90.82;102232.00;4947210;28;20039;-78
2021/08/14 01:52:52;;;;;;;27.77;5.90;;;;;;;16.33;90.69;102222.28;4945372;29;20484;-81
2021/08/14 01:55:37;;;;;;;29.77;6.22;;;;;;;16.35;90.45;102221.44;4942584;28;20443;-79
2021/08/14 01:58:03;;;;;;;26.60;5.57;;;;;;;16.38;90.49;102215.28;4955392;28;20335;-78
2021/08/14 02:00:30;;;;;;;22.50;5.57;;;;;;;16.38;90.85;102217.06;4938548;29;20043;-84
2021/08/14 02:03:11;;;;;;;34.50;6.07;;;;;;;16.38;90.49;102215.28;4957810;28;20058;-80
2021/08/14 02:05:37;;;;;;;32.80;6.85;;;;;;;16.41;90.64;102215.31;4943915;29;20039;-81
2021/08/14 02:08:02;;;;;;;30.27;5.65;;;;;;;16.41;90.52;102214.44;4939018;29;20045;-81
2021/08/14 02:10:28;;;;;;;26.10;5.38;;;;;;;16.40;90.71;102209.97;4945042;28;20043;-82
2021/08/14 02:12:53;;;;;;;35.60;6.45;;;;;;;16.41;90.86;102204.69;4942479;28;20071;-82
2021/08/14 02:15:18;;;;;;;26.27;5.72;;;;;;;16.43;90.77;102210.06;4944446;29;20076;-80
2021/08/14 02:17:44;;;;;;;34.33;6.43;;;;;;;16.43;90.61;102207.41;4950194;29;20084;-82
2021/08/14 02:20:10;;;;;;;26.55;6.18;;;;;;;16.42;90.96;102211.78;4955236;29;20027;-80
2021/08/14 02:22:35;;;;;;;23.58;5.60;;;;;;;16.42;91.06;102202.94;4947973;29;20075;-79
2021/08/14 02:25:20;;;;;;;27.67;5.90;;;;;;;16.44;90.80;102199.44;4949498;29;20547;-80
2021/08/14 02:27:46;;;;;;;25.83;5.82;;;;;;;16.42;91.22;102201.16;4945827;28;20087;-81
2021/08/14 02:30:12;;;;;;;29.30;5.47;;;;;;;16.41;91.29;102199.38;4954559;28;20123;-82
2021/08/14 02:32:38;;;;;;;22.17;5.13;;;;;;;16.45;90.81;102195.00;4946296;29;20027;-78
2021/08/14 02:35:04;;;;;;;28.98;5.72;;;;;;;16.45;90.90;102198.53;4950430;28;20031;-81
2021/08/14 02:37:30;;;;;;;29.92;6.65;;;;;;;16.47;91.03;102187.97;4926533;29;20041;-80
2021/08/14 02:39:55;;;;;;;35.20;6.47;;;;;;;16.48;90.98;102185.31;4956985;29;20031;-83
2021/08/14 02:42:21;;;;;;;23.80;5.68;;;;;;;16.48;91.11;102190.63;4951472;28;20032;-82
2021/08/14 02:45:07;;;;;;;31.52;6.60;;;;;;;16.46;90.67;102189.72;4944304;29;20088;-79
2021/08/14 02:47:33;;;;;;;20.83;5.50;;;;;;;16.46;90.94;102192.38;4928438;29;20049;-80
2021/08/14 02:49:58;;;;;;;32.50;6.28;;;;;;;16.48;91.09;102197.69;4950141;28;20547;-79
2021/08/14 02:52:24;;;;;;;31.88;6.15;;;;;;;16.45;91.16;102195.00;4940465;28;20024;-83
2021/08/14 02:54:49;;;;;;;32.60;5.72;;;;;;;16.44;91.40;102188.81;4938787;29;20388;-81
2021/08/14 02:57:14;;;;;;;26.83;6.05;;;;;;;16.45;91.19;102190.56;4956491;28;20039;-78
2021/08/14 02:59:40;;;;;;;28.17;5.93;;;;;;;16.44;91.18;102194.13;4941065;28;20023;-79
2021/08/14 03:02:05;;;;;;;21.50;5.40;;;;;;;16.45;91.32;102195.00;4945253;28;20031;-79
2021/08/14 03:04:31;;;;;;;27.50;7.03;;;;;;;16.45;91.25;102190.56;4939100;28;20024;-81
2021/08/14 03:06:56;;;;;;;32.28;7.68;;;;;;;16.44;91.28;102187.91;4939805;29;20039;-80
2021/08/14 03:09:22;;;;;;;29.17;6.47;;;;;;;16.42;91.47;102187.88;4940332;28;20036;-79
2021/08/14 03:11:51;;;;;;;27.95;6.00;;;;;;;16.41;91.54;102188.75;4954627;28;20039;-80
2021/08/14 03:14:17;;;;;;;31.92;7.75;;;;;;;16.41;91.38;102195.84;4949667;28;20087;-78
2021/08/14 03:16:42;;;;;;;35.78;7.78;;;;;;;16.37;92.02;102202.84;4945905;28;20035;-77
2021/08/14 03:19:07;;;;;;;28.75;7.53;;;;;;;16.35;91.92;102200.19;4951928;29;20047;-81
2021/08/14 03:21:33;;;;;;;31.55;7.65;;;;;;;16.37;92.00;102202.84;4942340;28;20070;-82
2021/08/14 03:23:58;;;;;;;30.63;7.00;;;;;;;16.36;92.01;102195.78;4945208;28;20031;-79
2021/08/14 03:26:44;;;;;;;35.15;7.28;;;;;;;16.34;91.89;102193.06;4942462;28;20078;-82
2021/08/14 03:29:09;;;;;;;34.80;8.70;;;;;;;16.32;92.30;102196.63;4934394;29;20042;-80
2021/08/14 03:31:34;;;;;;;33.72;7.38;;;;;;;16.30;92.27;102195.69;4922612;29;20031;-78
2021/08/14 03:34:20;;;;;;;29.40;7.03;;;;;;;16.29;92.13;102193.88;4949858;28;20100;-79
2021/08/14 03:36:45;;;;;;;36.55;8.32;;;;;;;16.30;92.26;102190.38;4942548;28;20039;-81
2021/08/14 03:39:11;;;;;;;35.70;7.55;;;;;;;16.28;92.25;102193.00;4936109;29;20038;-80
2021/08/14 03:41:36;;;;;;;34.65;7.57;;;;;;;16.26;92.69;102183.22;4944069;28;20040;-81
2021/08/14 03:44:22;;;;;;;31.65;7.68;;;;;;;16.23;92.48;102184.06;4949314;28;20489;-83
2021/08/14 03:46:47;;;;;;;33.08;8.25;;;;;;;16.21;92.77;102177.88;4952907;29;20071;-80
2021/08/14 03:49:15;;;;;;;42.30;7.85;;;;;;;16.21;92.76;102176.94;4943927;29;20027;-83
2021/08/14 03:51:40;;;;;;;38.60;7.45;;;;;;;16.21;92.79;102174.28;4949893;29;20574;-78
2021/08/14 03:54:06;;;;;;;37.78;8.35;;;;;;;16.21;92.83;102174.28;4955913;28;20067;-78
2021/08/14 03:56:31;;;;;;;27.60;6.15;;;;;;;16.18;92.74;102176.06;4934770;29;20032;-79
2021/08/14 03:59:17;;;;;;;45.50;8.25;;;;;;;16.14;93.14;102173.31;4945661;28;20163;-79
2021/08/14 04:01:42;;;;;;;38.15;8.43;;;;;;;16.11;93.24;102168.84;4949707;28;20039;-79
2021/08/14 04:04:08;;;;;;;33.38;7.13;;;;;;;16.07;93.12;102172.31;4945973;28;20031;-81
2021/08/14 04:06:34;;;;;;;39.38;7.53;;;;;;;16.01;93.28;102170.47;4938464;29;20040;-77
2021/08/14 04:08:59;;;;;;;26.92;6.53;;;;;;;15.98;93.30;102177.53;4945559;28;20039;-79
2021/08/14 04:12:04;;;;;;;32.25;7.53;;;;;;;15.91;93.46;102172.97;4944134;28;20030;-79
2021/08/14 04:14:30;;;;;;;38.13;8.93;;;;;;;15.83;93.79;102178.16;4941076;28;20475;-82
2021/08/14 04:16:55;;;;;;;36.85;7.80;;;;;;;15.78;93.94;102178.03;4950534;28;20035;-81
2021/08/14 04:19:21;;;;;;;37.08;7.28;;;;;;;15.74;93.80;102176.19;4947040;28;20146;-86
2021/08/14 04:21:47;;;;;;;34.92;7.32;;;;;;;15.70;94.50;102174.38;4946333;28;20031;-79
2021/08/14 04:24:32;;;;;;;33.65;7.47;;;;;;;15.68;94.89;102174.34;4942470;28;20032;-81
2021/08/14 04:26:58;;;;;;;29.63;8.15;;;;;;;15.67;94.95;102171.66;4951516;28;20085;-81
2021/08/14 04:29:23;;;;;;;30.23;7.15;;;;;;;15.65;95.39;102170.75;4952055;28;20062;-80
2021/08/14 04:31:49;;;;;;;39.58;8.80;;;;;;;15.64;95.36;102171.59;4945906;28;20213;-78
2021/08/14 04:34:14;;;;;;;40.88;8.70;;;;;;;15.63;95.28;102175.13;4938523;28;20376;-83
2021/08/14 04:36:40;;;;;;;38.58;8.57;;;;;;;15.61;95.28;102176.84;4941014;28;20133;-80
2021/08/14 04:39:05;;;;;;;33.13;9.20;;;;;;;15.61;95.48;102174.22;4941745;28;20027;-82
2021/08/14 04:41:31;;;;;;;47.30;8.50;;;;;;;15.60;95.36;102169.75;4955415;28;20027;-80
2021/08/14 04:43:56;;;;;;;38.15;9.10;;;;;;;15.58;95.39;102167.09;4952983;28;20016;-79
2021/08/14 04:46:21;;;;;;;34.25;8.38;;;;;;;15.59;95.24;102170.66;4937200;28;20039;-80
2021/08/14 04:49:07;;;;;;;40.58;8.13;;;;;;;15.61;95.10;102167.16;4937797;28;20043;-79
2021/08/14 04:51:32;;;;;;;30.98;8.63;;;;;;;15.62;94.91;102168.03;4943904;28;20399;-79
2021/08/14 04:53:58;;;;;;;38.30;7.25;;;;;;;15.65;94.74;102162.78;4939758;28;20032;-84
2021/08/14 04:56:24;;;;;;;26.02;7.60;;;;;;;15.68;94.47;102162.81;4947484;28;20135;-82
2021/08/14 04:58:49;;;;;;;30.13;7.80;;;;;;;15.72;93.90;102153.16;4946937;28;20386;-82
2021/08/14 05:01:15;;;;;;;24.15;7.22;;;;;;;15.78;93.57;102161.22;4935452;28;20050;-82
2021/08/14 05:03:40;;;;;;;32.33;7.40;;;;;;;15.76;93.05;102165.59;4937612;29;20483;-83
2021/08/14 05:06:07;;;;;;;34.97;7.88;;;;;;;15.75;92.80;102170.03;4955492;29;20434;-81
2021/08/14 05:08:41;;;;;;;29.38;7.07;;;;;;;15.74;92.53;102162.94;4940928;29;20410;-85
2021/08/14 05:11:07;;;;;;;33.70;9.65;;;;;;;15.74;92.71;102170.00;4939077;29;20040;-85
2021/08/14 05:13:32;;;;;;;25.67;7.22;;;;;;;15.70;92.56;102155.78;4944912;28;20059;-79
2021/08/14 05:15:58;;;;;;;31.60;6.93;;;;;;;15.71;92.30;102157.59;4949863;28;20027;-78
2021/08/14 05:18:43;;;;;;;28.80;8.48;;;;;;;15.71;92.31;102162.91;4938903;28;20588;-80
2021/08/14 05:21:08;;;;;;;29.70;7.20;;;;;;;15.72;92.34;102159.38;4937689;28;20395;-78
2021/08/14 05:23:34;;;;;;;27.73;7.40;;;;;;;15.75;92.72;102164.72;4943636;28;20056;-79
2021/08/14 05:25:59;;;;;;;33.30;8.07;;;;;;;15.81;92.58;102169.28;4944012;28;20079;-79
2021/08/14 05:28:25;;;;;;;28.17;8.45;;;;;;;15.90;92.17;102169.44;4946330;28;20123;-81
2021/08/14 05:30:50;;;;;;;37.63;9.48;;;;;;;15.99;91.92;102173.97;4941861;28;20388;-81
2021/08/14 05:33:15;;;;;;;31.38;8.18;;;;;;;16.12;91.12;102175.06;4942651;28;20039;-83
2021/08/14 05:35:41;;;;;;;30.88;9.00;;;;;;;16.22;91.06;102176.97;4944091;28;20056;-83
2021/08/14 05:38:06;;;;;;;27.73;8.20;;;;;;;16.35;90.49;102184.25;4943939;28;20023;-78
2021/08/14 05:40:34;;;;;;;30.35;8.15;;;;;;;16.48;89.50;102174.69;4946693;28;20035;-76
2021/08/14 05:43:00;;;;;;;32.10;9.07;;;;;;;16.49;89.73;102179.16;4953429;28;20066;-77
2021/08/14 05:45:25;;;;;;;34.78;8.38;;;;;;;16.54;89.18;102173.00;4928680;29;20028;-77
2021/08/14 05:47:50;;;;;;;29.50;8.32;;;;;;;16.57;88.67;102168.59;4956351;29;20050;-76
2021/08/14 05:50:18;;;;;;;27.92;8.20;;;;;;;16.55;89.62;102175.66;4943239;29;20034;-81
2021/08/14 05:52:44;;;;;;;35.85;9.68;;;;;;;16.54;89.19;102168.56;4941375;28;20167;-80
2021/08/14 05:55:09;;;;;;;44.88;10.07;;;;;;;16.57;89.34;102173.91;4940808;29;20039;-80
2021/08/14 05:57:35;;;;;;;42.80;10.25;;;;;;;16.57;89.51;102173.03;4959052;28;20547;-77
2021/08/14 06:00:00;;;;;;;37.60;10.50;;;;;;;16.55;89.29;102164.13;4942379;29;20032;-80
2021/08/14 06:02:26;;;;;;;37.67;10.35;;;;;;;16.55;89.89;102173.00;4954204;28;20046;-82
2021/08/14 06:04:51;;;;;;;36.28;9.98;;;;;;;16.61;90.05;102178.38;4956384;28;20030;-79
2021/08/14 06:07:16;;;;;;;35.10;9.70;;;;;;;16.70;89.52;102172.31;4944500;28;20037;-80
2021/08/14 06:09:42;;;;;;;31.83;10.05;;;;;;;16.76;88.99;102168.84;4940372;29;20039;-78
2021/08/14 06:12:10;;;;;;;30.75;10.63;;;;;;;16.88;89.10;102168.09;4940627;28;20032;-80
2021/08/14 06:14:35;;;;;;;43.10;11.07;;;;;;;16.98;88.75;102170.91;4945136;28;20027;-82
2021/08/14 06:17:01;;;;;;;35.45;10.98;;;;;;;17.05;88.53;102171.88;4939596;28;20114;-78
2021/08/14 06:19:28;;;;;;;27.65;10.55;;;;;;;17.08;88.16;102166.59;4947886;28;20050;-77
2021/08/14 06:21:54;;;;;;;37.38;9.52;;;;;;;17.37;87.34;102165.97;4946235;28;20035;-81
2021/08/14 06:24:22;;;;;;;26.30;9.30;;;;;;;17.76;85.47;102161.88;4954205;28;20030;-81
2021/08/14 06:26:48;;;;;;;35.90;9.63;;;;;;;18.23;83.71;102168.47;4955209;28;20045;-78
2021/08/14 06:29:13;;;;;;;32.85;9.13;;;;;;;18.71;82.66;102166.91;4954055;28;20499;-77
2021/08/14 06:31:39;;;;;;;32.42;10.68;;;;;;;19.24;79.36;102167.09;4953738;28;20027;-78
2021/08/14 06:34:05;;;;;;;36.90;10.35;;;;;;;19.44;78.43;102172.47;4937445;29;20028;-79
2021/08/14 06:36:31;;;;;;;31.80;10.40;;;;;;;19.47;78.18;102169.78;4951054;29;20031;-80
2021/08/14 06:38:56;;;;;;;27.52;9.02;;;;;;;19.57;77.49;102176.03;4955562;28;20023;-77
2021/08/14 06:41:22;;;;;;;31.08;10.13;;;;;;;19.76;77.03;102171.56;4939849;28;20027;-81
2021/08/14 06:43:47;;;;;;;38.15;10.70;;;;;;;19.73;77.01;102178.72;4920624;28;20121;-78
2021/08/14 06:46:12;;;;;;;38.38;10.73;;;;;;;19.64;77.10;102182.25;4939394;29;20047;-80
2021/08/14 06:48:38;;;;;;;33.45;10.75;;;;;;;19.41;78.50;102193.84;4941753;29;20035;-77
2021/08/14 06:51:03;;;;;;;46.60;11.40;;;;;;;19.43;78.75;102189.38;4939669;28;20035;-79
2021/08/14 06:53:29;;;;;;;33.25;11.55;;;;;;;19.83;77.40;102194.78;4955368;29;20487;-80
2021/08/14 06:56:15;;;;;;;34.53;11.77;;;;;;;20.13;76.39;102192.03;4955076;28;20042;-78
2021/08/14 06:58:40;;;;;;;36.47;12.25;;;;;;;20.10;75.33;102181.38;4954188;29;20027;-79
2021/08/14 07:01:06;;;;;;;33.20;10.80;;;;;;;20.38;75.66;102187.56;4933726;28;20042;-78
2021/08/14 07:03:32;;;;;;;29.15;10.57;;;;;;;20.38;74.59;102182.19;4945601;28;20494;-78
2021/08/14 07:05:58;;;;;;;37.08;11.02;;;;;;;20.53;74.49;102175.91;4952637;28;20039;-81
2021/08/14 07:08:23;;;;;;;36.13;11.90;;;;;;;20.27;75.19;102184.03;4953585;28;20035;-79
2021/08/14 07:10:48;;;;;;;32.40;10.60;;;;;;;20.37;74.92;102181.31;4953782;28;20126;-81
2021/08/14 07:13:14;;;;;;;33.80;11.52;;;;;;;20.18;76.75;102188.50;4945178;29;20035;-81
2021/08/14 07:15:39;;;;;;;36.40;10.77;;;;;;;20.07;75.58;102187.59;4945495;28;20027;-78
2021/08/14 07:18:25;;;;;;;39.95;10.90;;;;;;;20.20;75.65;102189.38;4953955;29;20039;-80
2021/08/14 07:20:50;;;;;;;36.13;11.20;;;;;;;20.33;75.95;102184.00;4952538;29;20054;-80
2021/08/14 07:23:15;;;;;;;26.45;9.82;;;;;;;20.45;75.79;102189.31;4952938;29;20090;-83
2021/08/14 07:25:41;;;;;;;33.00;10.27;;;;;;;20.72;74.13;102184.78;4952170;28;20103;-81
2021/08/14 07:28:42;;;;;;;28.90;10.07;;;;;;;20.90;73.40;102175.78;4951912;29;20027;-79
2021/08/14 07:31:07;;;;;;;26.88;9.35;;;;;;;20.89;73.71;102180.25;4952816;29;20035;-80
2021/08/14 07:33:33;;;;;;;31.45;10.27;;;;;;;20.69;73.53;102183.00;4953732;29;20031;-77
2021/08/14 07:35:58;;;;;;;29.05;11.30;;;;;;;20.24;75.21;102187.59;4954211;28;20039;-81
2021/08/14 07:38:23;;;;;;;36.03;11.73;;;;;;;20.01;76.65;102184.97;4950092;28;20056;-79
2021/08/14 07:40:49;;;;;;;38.47;12.50;;;;;;;20.05;76.16;102178.72;4938420;29;20023;-78
2021/08/14 07:43:14;;;;;;;37.90;12.18;;;;;;;20.08;76.23;102189.41;4937733;29;20031;-78
2021/08/14 07:45:40;;;;;;;43.70;11.85;;;;;;;20.02;77.11;102184.03;4938139;28;20019;-80
2021/08/14 07:48:06;;;;;;;30.25;11.63;;;;;;;20.11;77.19;102189.38;4938053;28;20035;-82
2021/08/14 07:50:33;;;;;;;32.47;11.73;;;;;;;20.27;75.84;102184.03;4954064;28;20042;-78
2021/08/14 07:53:00;;;;;;;34.72;11.52;;;;;;;20.17;75.68;102183.13;4938202;29;20028;-77
2021/08/14 07:55:45;;;;;;;31.88;11.13;;;;;;;20.00;75.71;102181.38;4947116;28;20027;-81
2021/08/14 07:58:14;;;;;;;37.15;12.40;;;;;;;19.99;76.64;102178.72;4937585;28;20046;-80
2021/08/14 08:00:40;;;;;;;37.13;10.95;;;;;;;20.19;76.46;102174.22;4950057;28;20074;-82
2021/08/14 08:03:09;;;;;;;34.08;10.82;;;;;;;20.52;76.65;102174.13;4952978;29;20435;-80
2021/08/14 08:05:35;;;;;;;33.63;10.07;;;;;;;20.83;75.20;102174.03;4947222;28;20110;-76
2021/08/14 08:08:23;;;;;;;34.35;11.80;;;;;;;20.89;75.89;102177.56;4954129;28;20058;-79
2021/08/14 08:10:48;;;;;;;32.47;10.35;;;;;;;20.98;73.15;102168.59;4936312;28;20064;-79
2021/08/14 08:13:14;;;;;;;29.00;10.90;;;;;;;20.88;72.88;102166.88;4949119;28;20036;-77
2021/08/14 08:15:39;;;;;;;31.02;9.43;;;;;;;20.65;74.63;102175.00;4935656;28;20111;-77
2021/08/14 08:18:04;;;;;;;33.92;8.20;;;;;;;20.53;74.22;102168.78;4952780;29;20039;-79
2021/08/14 08:20:50;;;;;;;27.63;8.55;;;;;;;20.63;75.08;102176.75;4953516;28;20454;-80
2021/08/14 08:23:16;;;;;;;27.13;7.82;;;;;;;20.89;74.32;102179.38;4952738;28;20042;-81
2021/08/14 08:25:43;;;;;;;26.17;8.93;;;;;;;21.40;71.95;102171.00;4952248;28;20050;-79
2021/08/14 08:28:09;;;;;;;26.40;7.50;;;;;;;21.25;72.04;102166.66;4951013;28;20031;-79
2021/08/14 08:30:37;;;;;;;30.02;8.60;;;;;;;21.17;73.62;102166.69;4950931;29;20042;-78
2021/08/14 08:33:03;;;;;;;23.40;7.03;;;;;;;21.26;71.37;102164.88;4940231;28;20098;-80
2021/08/14 08:35:30;;;;;;;26.08;8.45;;;;;;;21.34;71.95;102171.06;4937964;28;20488;-78
2021/08/14 08:37:56;;;;;;;24.77;7.70;;;;;;;21.63;69.84;102151.22;4936776;29;20048;-80
2021/08/14 08:40:21;;;;;;;24.75;6.85;;;;;;;21.92;68.68;102160.78;4946355;28;20494;-77
2021/08/14 08:42:48;;;;;;;26.50;7.72;;;;;;;21.68;69.95;102161.00;4945475;28;20046;-80
2021/08/14 08:45:14;;;;;;;25.60;6.53;;;;;;;21.50;69.66;102167.38;4944869;28;20028;-76
2021/08/14 08:47:46;;;;;;;35.33;8.57;;;;;;;21.54;71.49;102174.50;4939409;28;20035;-80
2021/08/14 08:50:13;;;;;;;22.92;7.40;;;;;;;21.61;70.67;102170.00;4944024;28;20027;-80
2021/08/14 08:52:41;;;;;;;25.52;7.82;;;;;;;21.67;69.09;102167.25;4954746;28;20053;-80
2021/08/14 08:55:10;;;;;;;29.15;8.00;;;;;;;21.66;70.67;102172.63;4953743;28;20363;-80
2021/08/14 08:57:58;;;;;;;30.02;6.80;;;;;;;21.97;67.58;102154.47;4947056;28;20091;-78
2021/08/14 09:00:23;;;;;;;23.90;6.45;;;;;;;22.06;67.68;102145.47;4945989;29;20395;-83
2021/08/14 09:03:10;;;;;;;20.33;6.60;;;;;;;21.90;68.45;102155.44;4957322;29;20049;-81
2021/08/14 09:05:45;;;;;;;19.02;5.95;;;;;;;21.54;68.83;102162.88;4937506;29;20098;-81
2021/08/14 09:08:11;;;;;;;20.48;6.68;;;;;;;21.73;70.20;102168.97;4955817;28;20038;-83
2021/08/14 09:10:37;;;;;;;25.13;6.07;;;;;;;22.10;67.07;102157.91;4957816;28;20066;-81
2021/08/14 09:13:10;;;;;;;26.25;6.65;;;;;;;22.39;67.75;102151.38;4956452;28;20055;-79
2021/08/14 09:15:36;;;;;;;23.00;5.85;;;;;;;22.96;64.57;102145.25;4956497;29;20126;-77
2021/08/14 09:18:23;;;;;;;23.45;6.10;;;;;;;23.63;62.75;102141.53;4937612;29;20122;-80
2021/08/14 09:21:27;;;;;;;20.08;5.63;;;;;;;23.34;61.88;102134.88;4941053;28;20043;-80
2021/08/14 09:23:52;;;;;;;28.05;5.68;;;;;;;23.02;62.65;102141.56;4954187;28;20028;-83
2021/08/14 09:26:18;;;;;;;21.70;5.55;;;;;;;22.69;63.82;102141.16;4957477;28;20094;-78
2021/08/14 09:28:43;;;;;;;22.50;5.95;;;;;;;22.67;63.41;102151.03;4944179;28;20043;-82
2021/08/14 09:31:11;;;;;;;15.18;5.68;;;;;;;23.14;62.21;102145.91;4951861;28;20388;-81
2021/08/14 09:33:37;;;;;;;19.45;4.90;;;;;;;23.19;59.10;102138.69;4953942;29;20477;-78
2021/08/14 09:36:08;;;;;;;13.30;5.07;;;;;;;22.90;60.31;102140.84;4940768;29;20126;-79
2021/08/14 09:38:59;;;;;;;15.35;4.88;;;;;;;23.51;59.62;102142.66;4956414;29;20061;-81
2021/08/14 09:41:25;;;;;;;17.13;4.72;;;;;;;23.38;59.49;102141.97;4944855;28;20035;-80
2021/08/14 09:43:53;;;;;;;16.95;5.45;;;;;;;23.07;59.82;102142.41;4945978;29;20505;-81
2021/08/14 09:47:01;;;;;;;14.43;4.30;;;;;;;22.68;61.06;102144.75;4955548;29;20038;-79
2021/08/14 09:49:26;;;;;;;14.82;4.53;;;;;;;22.63;61.52;102147.50;4956633;29;20039;-81
2021/08/14 09:52:38;;;;;;;18.40;5.05;;;;;;;22.48;62.16;102156.63;4954338;28;20499;-82
2021/08/14 09:55:23;;;;;;;12.00;4.53;;;;;;;22.11;61.77;102162.38;4933360;29;20064;-80
2021/08/14 09:58:24;;;;;;;12.50;5.35;;;;;;;22.20;61.84;102159.56;4955268;28;20118;-82
2021/08/14 10:00:52;;;;;;;15.30;4.90;;;;;;;22.47;61.09;102160.22;4920064;29;20488;-79
2021/08/14 10:03:17;;;;;;;17.15;5.05;;;;;;;22.30;59.70;102143.41;4955462;29;20039;-81
2021/08/14 10:05:44;;;;;;;15.80;4.75;;;;;;;22.84;58.31;102148.09;4955385;28;20450;-78
2021/08/14 10:08:50;;;;;;;15.95;4.78;;;;;;;23.05;58.57;102147.81;4956496;28;20086;-78
2021/08/14 10:11:16;;;;;;;12.65;4.40;;;;;;;22.90;57.36;102148.91;4941443;28;20099;-80
2021/08/14 10:13:42;;;;;;;13.38;4.28;;;;;;;22.54;58.49;102142.25;4947373;29;20656;-79
2021/08/14 10:16:12;;;;;;;19.90;5.50;;;;;;;22.13;59.53;102155.19;4956084;29;20031;-78
2021/08/14 10:18:42;;;;;;;14.30;4.90;;;;;;;22.18;59.62;102156.03;4953494;28;20137;-82
2021/08/14 10:21:13;;;;;;;22.08;5.10;;;;;;;22.83;61.54;102160.66;4922118;28;20032;-80
2021/08/14 10:23:41;;;;;;;14.55;5.22;;;;;;;24.53;58.23;102152.41;4940753;28;20167;-82
2021/08/14 10:26:46;;;;;;;11.98;4.10;;;;;;;25.38;49.88;102125.38;4940603;28;20088;-83
2021/08/14 10:29:16;;;;;;;12.15;4.18;;;;;;;25.03;50.56;102124.44;4944236;28;20035;-76
2021/08/14 10:31:49;;;;;;;12.90;4.35;;;;;;;24.24;51.56;102129.69;4953191;28;20030;-83
2021/08/14 10:34:14;;;;;;;14.02;4.10;;;;;;;23.28;55.75;102151.97;4955527;28;20034;-83
2021/08/14 10:37:19;;;;;;;13.32;4.80;;;;;;;23.31;56.83;102145.69;4954670;28;20039;-80
2021/08/14 10:39:55;;;;;;;9.77;3.97;;;;;;;24.76;52.66;102126.84;4938634;29;20063;-79
2021/08/14 10:42:48;;;;;;;11.60;4.13;;;;;;;25.91;47.52;102127.63;4954044;29;20035;-81
2021/08/14 10:45:35;;;;;;;12.20;4.68;;;;;;;26.20;47.65;102116.03;4952160;28;20034;-82
2021/08/14 10:48:06;;;;;;;10.57;4.32;;;;;;;27.04;46.46;102118.94;4954007;28;20039;-81
2021/08/14 10:50:31;;;;;;;13.25;4.43;;;;;;;27.11;46.49;102120.50;4953139;29;20023;-83
2021/08/14 10:53:22;;;;;;;13.02;4.30;;;;;;;26.25;46.88;102110.50;4953905;28;20031;-81
2021/08/14 10:56:12;;;;;;;12.70;3.85;;;;;;;25.61;47.59;102115.84;4951528;28;20031;-81
2021/08/14 10:58:38;;;;;;;11.60;3.72;;;;;;;25.53;48.42;102114.22;4951761;29;20039;-81
2021/08/14 11:01:03;;;;;;;12.43;4.43;;;;;;;25.58;47.24;102117.69;4948745;28;20553;-79
2021/08/14 11:03:33;;;;;;;13.30;4.03;;;;;;;25.33;48.60;102127.31;4954187;28;20102;-84
2021/08/14 11:06:27;;;;;;;10.77;3.67;;;;;;;26.79;47.81;102119.72;4952482;28;20124;-82
2021/08/14 11:09:17;;;;;;;12.07;3.90;;;;;;;28.02;43.35;102103.00;4955316;28;20028;-81
2021/08/14 11:12:02;;;;;;;12.93;3.47;;;;;;;28.45;40.51;102093.25;4938413;29;20502;-80
2021/08/14 11:14:44;;;;;;;10.10;3.38;;;;;;;28.10;38.63;102079.25;4955460;28;20059;-83
2021/08/14 11:17:49;;;;;;;12.95;4.43;;;;;;;28.52;38.83;102094.78;4939809;28;20023;-80
2021/08/14 11:20:21;;;;;;;8.07;3.42;;;;;;;28.61;37.45;102090.84;4940455;28;20038;-79
2021/08/14 11:22:55;;;;;;;10.43;3.45;;;;;;;28.46;40.49;102092.31;4948792;28;20031;-80
2021/08/14 11:26:00;;;;;;;10.05;3.70;;;;;;;28.74;40.03;102096.66;4937283;28;20044;-81
2021/08/14 11:28:26;;;;;;;8.85;3.50;;;;;;;29.05;39.00;102079.16;4939847;28;20046;-79
2021/08/14 11:31:04;;;;;;;10.18;3.97;;;;;;;29.25;39.90;102098.19;4946347;29;20051;-81